createdAt,value
2022-08-23T00:01:56.813Z,17.70
2022-08-23T00:04:35.005Z,17.60
2022-08-23T00:07:12.254Z,17.60
2022-08-23T00:09:45.963Z,17.60
2022-08-23T00:12:22.108Z,17.60
2022-08-23T00:14:57.656Z,17.60
2022-08-23T00:17:34.172Z,17.60
2022-08-23T00:20:11.897Z,17.60
2022-08-23T00:22:45.383Z,17.60
2022-08-23T00:25:19.390Z,17.60
2022-08-23T00:27:52.840Z,17.60
2022-08-23T00:30:27.721Z,17.60
2022-08-23T00:33:01.274Z,17.60
2022-08-23T00:35:34.813Z,17.60
2022-08-23T00:38:34.196Z,17.60
2022-08-23T00:41:02.186Z,17.60
2022-08-23T00:43:57.136Z,17.60
2022-08-23T00:47:00.199Z,17.60
2022-08-23T00:49:36.995Z,17.60
2022-08-23T00:52:17.866Z,17.60
2022-08-23T00:54:53.766Z,17.60
2022-08-23T00:57:28.677Z,17.60
2022-08-23T01:00:02.273Z,17.60
2022-08-23T01:02:37.420Z,17.60
2022-08-23T01:05:11.818Z,17.60
2022-08-23T01:07:48.944Z,17.60
2022-08-23T01:10:28.569Z,17.60
2022-08-23T01:13:10.434Z,17.60
2022-08-23T01:15:47.977Z,17.60
2022-08-23T01:18:26.278Z,17.50
2022-08-23T01:21:06.934Z,17.50
2022-08-23T01:23:48.601Z,17.50
2022-08-23T01:26:24.871Z,17.50
2022-08-23T01:28:58.295Z,17.50
2022-08-23T01:31:32.434Z,17.50
2022-08-23T01:34:09.848Z,17.50
2022-08-23T01:36:44.240Z,17.50
2022-08-23T01:39:19.444Z,17.50
2022-08-23T01:41:52.866Z,17.50
2022-08-23T01:44:27.441Z,17.50
2022-08-23T01:47:03.110Z,17.50
2022-08-23T01:49:36.585Z,17.50
2022-08-23T01:52:10.225Z,17.50
2022-08-23T01:54:45.573Z,17.50
2022-08-23T01:57:18.995Z,17.50
2022-08-23T01:59:52.636Z,17.50
2022-08-23T02:02:27.263Z,17.50
2022-08-23T02:05:00.711Z,17.40
2022-08-23T02:07:34.386Z,17.40
2022-08-23T02:10:11.134Z,17.40
2022-08-23T02:12:45.388Z,17.40
2022-08-23T02:15:21.368Z,17.40
2022-08-23T02:17:55.944Z,17.40
2022-08-23T02:20:29.679Z,17.40
2022-08-23T02:23:03.174Z,17.30
2022-08-23T02:25:38.028Z,17.30
2022-08-23T02:28:11.918Z,17.30
2022-08-23T02:30:46.771Z,17.30
2022-08-23T02:33:21.146Z,17.30
2022-08-23T02:35:54.689Z,17.20
2022-08-23T02:38:28.321Z,17.20
2022-08-23T02:41:03.274Z,17.20
2022-08-23T02:43:40.900Z,17.20
2022-08-23T02:46:14.921Z,17.30
2022-08-23T02:48:50.112Z,17.30
2022-08-23T02:51:24.979Z,17.20
2022-08-23T02:53:59.360Z,17.20
2022-08-23T02:56:36.254Z,17.20
2022-08-23T02:59:09.984Z,17.20
2022-08-23T03:01:45.478Z,17.20
2022-08-23T03:04:33.529Z,17.20
2022-08-23T03:07:07.968Z,17.20
2022-08-23T03:09:43.141Z,17.20
2022-08-23T03:12:18.196Z,17.20
2022-08-23T03:14:56.410Z,17.20
2022-08-23T03:17:31.197Z,17.10
2022-08-23T03:20:05.641Z,17.10
2022-08-23T03:22:39.106Z,17.10
2022-08-23T03:25:12.712Z,17.20
2022-08-23T03:28:20.303Z,17.20
2022-08-23T03:30:54.395Z,17.10
2022-08-23T03:33:28.224Z,17.10
2022-08-23T03:36:02.795Z,17.10
2022-08-23T03:38:37.993Z,17.10
2022-08-23T03:41:14.085Z,17.10
2022-08-23T03:43:49.149Z,17.10
2022-08-23T03:46:25.528Z,17.10
2022-08-23T03:49:06.830Z,17.10
2022-08-23T03:51:50.125Z,17.00
2022-08-23T03:54:23.523Z,17.10
2022-08-23T03:57:02.799Z,17.00
2022-08-23T03:59:42.719Z,17.00
2022-08-23T04:02:18.531Z,17.00
2022-08-23T04:04:52.436Z,17.10
2022-08-23T04:07:29.043Z,17.00
2022-08-23T04:10:05.949Z,17.00
2022-08-23T04:12:43.866Z,17.00
2022-08-23T04:15:22.987Z,17.00
2022-08-23T04:17:56.473Z,17.00
2022-08-23T04:20:31.260Z,17.00
2022-08-23T04:23:07.503Z,17.00
2022-08-23T04:25:52.043Z,17.00
2022-08-23T04:28:26.245Z,17.00
2022-08-23T04:31:02.543Z,17.00
2022-08-23T04:33:40.559Z,17.00
2022-08-23T04:36:16.175Z,17.00
2022-08-23T04:38:49.857Z,17.00
2022-08-23T04:41:41.316Z,17.00
2022-08-23T04:44:15.589Z,17.00
2022-08-23T04:46:50.662Z,17.00
2022-08-23T04:49:24.592Z,17.10
2022-08-23T04:51:59.553Z,17.10
2022-08-23T04:54:33.054Z,17.10
2022-08-23T04:57:35.805Z,17.10
2022-08-23T05:00:12.635Z,17.10
2022-08-23T05:02:53.151Z,17.10
2022-08-23T05:05:28.320Z,17.10
2022-08-23T05:08:01.888Z,17.10
2022-08-23T05:10:35.486Z,17.20
2022-08-23T05:13:08.944Z,17.20
2022-08-23T05:15:42.871Z,17.20
2022-08-23T05:18:17.903Z,17.20
2022-08-23T05:20:51.650Z,17.20
2022-08-23T05:23:32.068Z,17.20
2022-08-23T05:26:12.851Z,17.30
2022-08-23T05:28:50.146Z,17.30
2022-08-23T05:31:29.510Z,17.30
2022-08-23T05:34:09.753Z,17.40
2022-08-23T05:36:55.616Z,17.40
2022-08-23T05:39:36.941Z,17.40
2022-08-23T05:42:15.579Z,17.40
2022-08-23T05:44:50.082Z,17.40
2022-08-23T05:47:27.212Z,17.40
2022-08-23T05:50:14.695Z,17.40
2022-08-23T05:52:51.036Z,17.40
2022-08-23T05:55:27.526Z,17.40
2022-08-23T05:58:25.083Z,17.50
2022-08-23T06:00:58.652Z,17.50
2022-08-23T06:03:32.120Z,17.60
2022-08-23T06:06:07.943Z,17.60
2022-08-23T06:08:42.614Z,17.60
2022-08-23T06:11:18.860Z,17.60
2022-08-23T06:13:55.123Z,17.70
2022-08-23T06:16:37.101Z,17.70
2022-08-23T06:19:11.252Z,17.80
2022-08-23T06:21:55.663Z,17.80
2022-08-23T06:24:39.317Z,17.90
2022-08-23T06:27:19.917Z,17.90
2022-08-23T06:29:53.368Z,17.90
2022-08-23T06:32:38.704Z,17.90
2022-08-23T06:35:39.490Z,18.00
2022-08-23T06:38:36.740Z,18.10
2022-08-23T06:41:24.490Z,18.10
2022-08-23T06:44:12.870Z,18.20
2022-08-23T06:47:18.654Z,18.30
2022-08-23T06:49:58.408Z,18.40
2022-08-23T06:52:58.346Z,18.50
2022-08-23T06:55:46.761Z,18.50
2022-08-23T06:58:27.535Z,18.60
2022-08-23T07:01:47.527Z,18.60
2022-08-23T07:04:44.400Z,18.70
2022-08-23T07:07:44.358Z,18.70
2022-08-23T07:10:19.907Z,18.80
2022-08-23T07:12:54.831Z,18.90
2022-08-23T07:15:29.145Z,19.10
2022-08-23T07:18:02.554Z,19.20
2022-08-23T07:20:36.157Z,19.30
2022-08-23T07:23:09.788Z,19.30
2022-08-23T07:25:43.826Z,19.30
2022-08-23T07:28:22.884Z,19.40
2022-08-23T07:31:07.042Z,19.50
2022-08-23T07:33:49.004Z,19.60
2022-08-23T07:36:27.996Z,19.90
2022-08-23T07:39:02.515Z,20.10
2022-08-23T07:41:38.787Z,20.40
2022-08-23T07:44:17.996Z,20.60
2022-08-23T07:46:53.328Z,20.80
2022-08-23T07:49:29.259Z,20.90
2022-08-23T07:52:05.090Z,21.10
2022-08-23T07:54:38.867Z,21.20
2022-08-23T07:57:30.545Z,21.40
2022-08-23T08:00:28.841Z,21.60
2022-08-23T08:03:14.889Z,21.70
2022-08-23T08:06:10.000Z,21.90
2022-08-23T08:08:44.524Z,22.00
2022-08-23T08:11:20.599Z,22.20
2022-08-23T08:13:55.363Z,22.50
2022-08-23T08:16:33.011Z,22.70
2022-08-23T08:19:09.722Z,22.80
2022-08-23T08:22:02.090Z,23.00
2022-08-23T08:24:54.251Z,23.20
2022-08-23T08:27:27.716Z,23.30
2022-08-23T08:30:01.604Z,23.50
2022-08-23T08:32:46.729Z,23.70
2022-08-23T08:35:21.109Z,23.90
2022-08-23T08:37:55.193Z,24.10
2022-08-23T08:40:40.156Z,24.30
2022-08-23T08:43:31.651Z,24.50
2022-08-23T08:46:12.455Z,24.70
2022-08-23T08:48:52.077Z,24.90
2022-08-23T08:51:42.236Z,25.10
2022-08-23T08:54:21.144Z,25.40
2022-08-23T08:56:59.227Z,25.50
2022-08-23T08:59:46.260Z,25.70
2022-08-23T09:02:32.709Z,25.90
2022-08-23T09:05:15.774Z,26.10
2022-08-23T09:08:01.211Z,26.30
2022-08-23T09:11:07.064Z,26.60
2022-08-23T09:13:57.565Z,27.00
2022-08-23T09:16:44.978Z,27.30
2022-08-23T09:19:18.940Z,27.40
2022-08-23T09:21:59.708Z,27.60
2022-08-23T09:24:34.443Z,27.90
2022-08-23T09:27:15.563Z,28.10
2022-08-23T09:29:59.286Z,28.40
2022-08-23T09:32:35.921Z,28.50
2022-08-23T09:35:16.251Z,28.80
2022-08-23T09:38:01.045Z,29.10
2022-08-23T09:40:42.439Z,29.20
2022-08-23T09:43:19.949Z,29.40
2022-08-23T09:46:00.905Z,29.50
2022-08-23T09:48:43.396Z,29.80
2022-08-23T09:51:26.192Z,30.10
2022-08-23T09:54:11.816Z,30.30
2022-08-23T09:56:51.256Z,30.60
2022-08-23T09:59:40.226Z,30.50
2022-08-23T10:02:27.880Z,30.40
2022-08-23T10:05:07.258Z,30.50
2022-08-23T10:07:55.952Z,30.40
2022-08-23T10:10:37.191Z,30.40
2022-08-23T10:13:12.895Z,30.30
2022-08-23T10:15:55.946Z,30.20
2022-08-23T10:18:44.006Z,30.30
2022-08-23T10:21:24.494Z,30.40
2022-08-23T10:24:15.391Z,30.40
2022-08-23T10:27:27.313Z,30.70
2022-08-23T10:30:06.066Z,31.10
2022-08-23T10:33:00.838Z,31.40
2022-08-23T10:35:44.530Z,31.60
2022-08-23T10:38:35.243Z,31.80
2022-08-23T10:41:23.740Z,31.90
2022-08-23T10:44:12.534Z,31.80
2022-08-23T10:46:55.142Z,31.70
2022-08-23T10:49:30.083Z,31.90
2022-08-23T10:52:08.954Z,31.90
2022-08-23T10:54:59.423Z,32.20
2022-08-23T10:57:39.028Z,32.40
2022-08-23T11:00:22.693Z,32.40
2022-08-23T11:03:03.490Z,32.60
2022-08-23T11:05:40.907Z,32.70
2022-08-23T11:08:34.662Z,32.80
2022-08-23T11:11:40.632Z,32.70
2022-08-23T11:14:29.381Z,32.50
2022-08-23T11:17:09.119Z,32.40
2022-08-23T11:19:52.571Z,32.30
2022-08-23T11:22:29.855Z,32.20
2022-08-23T11:25:28.363Z,32.30
2022-08-23T11:28:38.765Z,32.20
2022-08-23T11:31:29.285Z,32.10
2022-08-23T11:34:06.950Z,32.00
2022-08-23T11:36:41.440Z,31.90
2022-08-23T11:39:19.608Z,31.80
2022-08-23T11:42:06.315Z,31.50
2022-08-23T11:44:49.752Z,31.30
2022-08-23T11:47:28.779Z,31.20
2022-08-23T11:50:26.992Z,31.10
2022-08-23T11:53:22.683Z,31.00
2022-08-23T11:56:16.253Z,31.10
2022-08-23T11:59:13.830Z,31.20
2022-08-23T12:01:48.849Z,31.30
2022-08-23T12:04:34.380Z,31.40
2022-08-23T12:07:13.201Z,31.50
2022-08-23T12:09:57.632Z,31.60
2022-08-23T12:12:39.413Z,31.70
2022-08-23T12:15:18.332Z,31.70
2022-08-23T12:18:19.234Z,31.70
2022-08-23T12:21:00.097Z,31.90
2022-08-23T12:23:47.941Z,31.90
2022-08-23T12:26:29.302Z,31.90
2022-08-23T12:29:08.404Z,31.80
2022-08-23T12:31:49.635Z,31.70
2022-08-23T12:34:32.090Z,31.70
2022-08-23T12:37:09.583Z,31.70
2022-08-23T12:39:52.697Z,31.50
2022-08-23T12:42:29.128Z,31.40
2022-08-23T12:45:08.479Z,31.40
2022-08-23T12:47:43.371Z,31.50
2022-08-23T12:50:32.957Z,31.50
2022-08-23T12:53:08.929Z,31.60
2022-08-23T12:55:45.661Z,31.50
2022-08-23T12:58:31.681Z,31.50
2022-08-23T13:01:09.964Z,31.60
2022-08-23T13:03:48.391Z,31.60
2022-08-23T13:06:25.771Z,31.60
2022-08-23T13:09:04.653Z,31.60
2022-08-23T13:11:39.299Z,31.60
2022-08-23T13:14:31.182Z,31.70
2022-08-23T13:17:17.295Z,31.80
2022-08-23T13:19:53.028Z,31.90
2022-08-23T13:22:28.213Z,31.90
2022-08-23T13:28:01.522Z,32.10
2022-08-23T13:30:37.587Z,32.10
2022-08-23T13:33:28.402Z,32.10
2022-08-23T13:36:13.836Z,32.20
2022-08-23T13:38:49.134Z,32.20
2022-08-23T13:41:32.397Z,32.20
2022-08-23T13:44:16.925Z,32.10
2022-08-23T13:46:52.613Z,32.10
2022-08-23T13:49:28.692Z,32.00
2022-08-23T13:52:45.560Z,31.90
2022-08-23T13:55:05.435Z,32.00
2022-08-23T13:57:41.159Z,32.00
2022-08-23T14:00:19.303Z,31.90
2022-08-23T14:02:53.656Z,31.90
2022-08-23T14:05:27.191Z,31.80
2022-08-23T14:08:00.681Z,31.80
2022-08-23T14:10:35.517Z,31.70
2022-08-23T14:13:10.947Z,31.70
2022-08-23T14:19:15.040Z,31.50
2022-08-23T14:21:33.045Z,31.40
2022-08-23T14:24:06.955Z,31.40
2022-08-23T14:26:50.251Z,31.30
2022-08-23T14:29:28.301Z,31.10
2022-08-23T14:32:01.739Z,30.90
2022-08-23T14:34:35.418Z,30.70
2022-08-23T14:40:02.254Z,30.50
2022-08-23T14:42:37.094Z,30.50
2022-08-23T14:45:11.745Z,30.50
2022-08-23T14:47:45.132Z,30.50
2022-08-23T14:50:18.558Z,30.50
2022-08-23T14:52:52.014Z,30.40
2022-08-23T14:55:25.604Z,30.40
2022-08-23T14:58:00.844Z,30.30
2022-08-23T15:00:36.167Z,30.30
2022-08-23T15:03:11.942Z,30.30
2022-08-23T15:06:05.419Z,30.30
2022-08-23T15:08:39.045Z,30.30
2022-08-23T15:14:10.598Z,30.30
2022-08-23T15:16:44.136Z,30.30
2022-08-23T15:19:17.869Z,30.20
2022-08-23T15:21:51.264Z,30.00
2022-08-23T15:24:24.934Z,29.90
2022-08-23T15:26:59.908Z,29.80
2022-08-23T15:29:34.720Z,29.80
2022-08-23T15:32:09.216Z,29.60
2022-08-23T15:34:48.178Z,29.50
2022-08-23T15:37:22.288Z,29.40
2022-08-23T15:39:55.791Z,29.10
2022-08-23T15:42:29.182Z,28.90
2022-08-23T15:45:06.864Z,28.70
2022-08-23T15:47:47.525Z,28.70
2022-08-23T15:50:23.447Z,28.50
2022-08-23T15:52:56.957Z,28.40
2022-08-23T15:55:33.739Z,28.20
2022-08-23T15:58:07.560Z,28.20
2022-08-23T16:00:42.735Z,28.00
2022-08-23T16:03:18.748Z,27.90
2022-08-23T16:05:54.889Z,27.70
2022-08-23T16:08:31.327Z,27.60
2022-08-23T16:11:10.483Z,27.30
2022-08-23T16:13:45.903Z,27.10
2022-08-23T16:16:24.645Z,26.90
2022-08-23T16:18:59.731Z,26.70
2022-08-23T16:21:34.058Z,26.60
2022-08-23T16:24:08.736Z,26.50
2022-08-23T16:26:46.069Z,26.50
2022-08-23T16:29:21.283Z,26.30
2022-08-23T16:31:56.014Z,26.20
2022-08-23T16:34:29.376Z,26.10
2022-08-23T16:37:06.323Z,26.00
2022-08-23T16:39:40.274Z,25.80
2022-08-23T16:42:14.613Z,25.70
2022-08-23T16:44:48.145Z,25.60
2022-08-23T16:47:23.022Z,25.50
2022-08-23T16:49:56.450Z,25.40
2022-08-23T16:52:34.443Z,25.30
2022-08-23T16:55:11.232Z,25.20
2022-08-23T16:57:44.611Z,25.20
2022-08-23T17:00:18.926Z,25.10
2022-08-23T17:02:54.050Z,25.10
2022-08-23T17:05:27.734Z,25.10
2022-08-23T17:08:01.905Z,25.00
2022-08-23T17:10:35.688Z,24.90
2022-08-23T17:13:10.052Z,24.80
2022-08-23T17:15:43.479Z,24.80
2022-08-23T17:18:18.274Z,24.70
2022-08-23T17:20:51.805Z,24.60
2022-08-23T17:23:25.273Z,24.60
2022-08-23T17:25:58.609Z,24.50
2022-08-23T17:28:32.303Z,24.40
2022-08-23T17:31:06.714Z,24.30
2022-08-23T17:33:41.938Z,24.20
2022-08-23T17:36:31.437Z,24.20
2022-08-23T17:39:07.898Z,24.10
2022-08-23T17:41:45.358Z,24.00
2022-08-23T17:44:20.399Z,23.90
2022-08-23T17:46:54.200Z,23.80
2022-08-23T17:49:29.359Z,23.70
2022-08-23T17:52:02.888Z,23.50
2022-08-23T17:54:36.344Z,23.50
2022-08-23T17:57:13.875Z,23.40
2022-08-23T17:59:48.611Z,23.30
2022-08-23T18:02:22.215Z,23.30
2022-08-23T18:04:57.048Z,23.20
2022-08-23T18:07:30.680Z,23.10
2022-08-23T18:10:04.759Z,23.10
2022-08-23T18:12:38.164Z,23.00
2022-08-23T18:15:13.347Z,22.90
2022-08-23T18:17:46.874Z,22.90
2022-08-23T18:20:22.231Z,22.80
2022-08-23T18:22:56.663Z,22.70
2022-08-23T18:25:30.578Z,22.70
2022-08-23T18:28:06.442Z,22.60
2022-08-23T18:30:49.601Z,22.60
2022-08-23T18:33:31.856Z,22.60
2022-08-23T18:36:13.215Z,22.50
2022-08-23T18:38:46.615Z,22.50
2022-08-23T18:41:20.261Z,22.40
2022-08-23T18:43:53.919Z,22.40
2022-08-23T18:46:33.032Z,22.30
2022-08-23T18:49:08.997Z,22.30
2022-08-23T18:51:43.893Z,22.30
2022-08-23T18:54:17.275Z,22.20
2022-08-23T18:56:50.674Z,22.20
2022-08-23T18:59:24.485Z,22.10
2022-08-23T19:01:58.063Z,22.10
2022-08-23T19:04:32.444Z,22.00
2022-08-23T19:07:08.357Z,22.00
2022-08-23T19:09:41.737Z,21.90
2022-08-23T19:12:15.119Z,21.90
2022-08-23T19:14:48.951Z,21.80
2022-08-23T19:17:22.406Z,21.80
2022-08-23T19:19:55.799Z,21.70
2022-08-23T19:22:30.647Z,21.60
2022-08-23T19:25:04.232Z,21.50
2022-08-23T19:27:37.799Z,21.40
2022-08-23T19:30:13.407Z,21.30
2022-08-23T19:32:50.839Z,21.30
2022-08-23T19:35:24.473Z,21.20
2022-08-23T19:37:59.452Z,21.10
2022-08-23T19:40:34.695Z,21.00
2022-08-23T19:43:09.183Z,21.00
2022-08-23T19:45:42.703Z,20.90
2022-08-23T19:48:16.065Z,20.90
2022-08-23T19:50:50.644Z,20.80
2022-08-23T19:53:25.437Z,20.70
2022-08-23T19:56:03.277Z,20.70
2022-08-23T19:58:36.706Z,20.60
2022-08-23T20:01:10.450Z,20.60
2022-08-23T20:03:43.834Z,20.50
2022-08-23T20:06:18.952Z,20.50
2022-08-23T20:08:54.021Z,20.40
2022-08-23T20:11:28.642Z,20.30
2022-08-23T20:14:04.841Z,20.30
2022-08-23T20:16:41.078Z,20.20
2022-08-23T20:19:15.059Z,20.10
2022-08-23T20:21:48.539Z,20.00
2022-08-23T20:24:37.344Z,20.00
2022-08-23T20:27:25.310Z,19.90
2022-08-23T20:30:06.608Z,19.80
2022-08-23T20:32:40.548Z,19.80
2022-08-23T20:35:14.269Z,19.70
2022-08-23T20:37:47.662Z,19.70
2022-08-23T20:40:25.923Z,19.60
2022-08-23T20:42:59.480Z,19.60
2022-08-23T20:45:33.752Z,19.50
2022-08-23T20:48:08.547Z,19.50
2022-08-23T20:50:44.535Z,19.40
2022-08-23T20:53:17.944Z,19.30
2022-08-23T20:55:52.771Z,19.30
2022-08-23T20:58:27.515Z,19.30
2022-08-23T21:01:00.949Z,19.20
2022-08-23T21:03:35.780Z,19.20
2022-08-23T21:06:11.298Z,19.10
2022-08-23T21:08:45.194Z,19.10
2022-08-23T21:11:21.666Z,19.00
2022-08-23T21:13:55.576Z,19.00
2022-08-23T21:16:29.038Z,19.00
2022-08-23T21:19:02.847Z,18.90
2022-08-23T21:21:37.571Z,18.90
2022-08-23T21:24:12.335Z,18.90
2022-08-23T21:26:47.101Z,18.80
2022-08-23T21:29:20.434Z,18.80
2022-08-23T21:31:53.759Z,18.80
2022-08-23T21:34:27.267Z,18.70
2022-08-23T21:37:00.718Z,18.70
2022-08-23T21:39:34.312Z,18.70
2022-08-23T21:42:14.692Z,18.60
2022-08-23T21:44:48.686Z,18.60
2022-08-23T21:47:22.163Z,18.50
2022-08-23T21:49:55.631Z,18.50
2022-08-23T21:52:29.116Z,18.50
2022-08-23T21:55:02.572Z,18.40
2022-08-23T21:57:37.640Z,18.40
2022-08-23T22:00:15.060Z,18.40
2022-08-23T22:02:49.269Z,18.30
2022-08-23T22:05:22.707Z,18.20
2022-08-23T22:07:56.185Z,18.20
2022-08-23T22:10:29.533Z,18.20
2022-08-23T22:13:04.772Z,18.10
2022-08-23T22:15:38.305Z,18.10
2022-08-23T22:18:11.719Z,18.10
2022-08-23T22:20:45.138Z,18.10
2022-08-23T22:23:18.520Z,18.00
2022-08-23T22:25:51.966Z,17.90
2022-08-23T22:28:26.935Z,17.90
2022-08-23T22:31:07.015Z,17.90
2022-08-23T22:33:40.891Z,17.90
2022-08-23T22:36:17.136Z,17.80
2022-08-23T22:38:51.812Z,17.80
2022-08-23T22:41:27.554Z,17.70
2022-08-23T22:44:03.845Z,17.70
2022-08-23T22:46:37.323Z,17.70
2022-08-23T22:49:10.991Z,17.70
2022-08-23T22:51:44.702Z,17.60
2022-08-23T22:54:18.481Z,17.60
2022-08-23T22:56:53.866Z,17.60
2022-08-23T22:59:33.045Z,17.60
2022-08-23T23:02:07.271Z,17.60
2022-08-23T23:04:41.238Z,17.50
2022-08-23T23:07:14.653Z,17.50
2022-08-23T23:09:48.256Z,17.50
2022-08-23T23:12:21.651Z,17.50
2022-08-23T23:14:56.489Z,17.40
2022-08-23T23:17:29.968Z,17.40
2022-08-23T23:20:20.936Z,17.30
2022-08-23T23:22:54.626Z,17.30
2022-08-23T23:25:28.214Z,17.30
2022-08-23T23:28:06.567Z,17.30
2022-08-23T23:30:42.503Z,17.30
2022-08-23T23:33:16.727Z,17.30
2022-08-23T23:35:51.021Z,17.20
2022-08-23T23:38:24.498Z,17.20
2022-08-23T23:40:57.825Z,17.20
2022-08-23T23:43:31.315Z,17.20
2022-08-23T23:46:07.795Z,17.20
2022-08-23T23:48:42.308Z,17.20
2022-08-23T23:51:18.166Z,17.10
2022-08-23T23:53:52.600Z,17.10
2022-08-23T23:56:27.469Z,17.10
2022-08-23T23:59:01.070Z,17.10
